Terminal Aerodrome Forecast
Issued by NWS Cleveland, OH

Home | Current Version | Previous Version | Graphics & Text | Print | Product List | Glossary On
Versions: 1 2 3 4 5 6 7 8 9 10 11 12 13 14 15 16 17 18 19 20 21 22 23 24 25 26 27 28 29 30 31 32 33
000
FTUS41 KCLE 280500 RRA
TAFCLE
TAF
KCLE 280547Z 2806/2912 24008KT 5SM -TSRA BR BKN012CB OVC025
      TEMPO 2806/2807 1SM +TSRA BR OVC005CB
     FM280700 32010KT 4SM -SHRA BR OVC012
      TEMPO 2811/2814 32015G22KT 1SM SHRA BR OVC006
     FM281400 34015G22KT 6SM BR VCSH BKN012 OVC035
     FM281800 34018G25KT P6SM BKN025
     FM290000 35008KT P6SM BKN030
     FM290500 28005KT P6SM SCT030=

USA.gov is the U.S. government's official web portal to all federal, state and local government web resources and services.